createdAt,value
2018-12-11T00:02:26.566Z,4.80
2018-12-11T00:05:02.620Z,4.80
2018-12-11T00:07:31.380Z,5.00
2018-12-11T00:10:03.125Z,5.10
2018-12-11T00:12:32.124Z,5.20
2018-12-11T00:15:02.906Z,5.30
2018-12-11T00:17:34.021Z,5.30
2018-12-11T00:20:04.556Z,5.50
2018-12-11T00:22:36.523Z,5.50
2018-12-11T00:25:08.074Z,5.40
2018-12-11T00:27:38.759Z,5.50
2018-12-11T00:30:09.340Z,5.50
2018-12-11T00:32:39.380Z,5.50
2018-12-11T00:35:08.954Z,5.40
2018-12-11T00:37:37.312Z,5.40
2018-12-11T00:40:06.931Z,5.40
2018-12-11T00:42:35.905Z,5.30
2018-12-11T00:45:05.473Z,5.20
2018-12-11T00:47:34.709Z,5.10
2018-12-11T00:50:04.801Z,5.10
2018-12-11T00:52:34.357Z,4.90
2018-12-11T00:55:03.524Z,4.90
2018-12-11T00:57:32.319Z,4.80
2018-12-11T01:00:01.610Z,4.80
2018-12-11T01:02:30.232Z,4.80
2018-12-11T01:05:00.942Z,4.80
2018-12-11T01:07:31.291Z,4.70
2018-12-11T01:10:03.385Z,4.70
2018-12-11T01:12:33.329Z,4.70
2018-12-11T01:15:03.809Z,4.70
2018-12-11T01:17:36.516Z,4.70
2018-12-11T01:20:09.833Z,4.70
2018-12-11T01:22:42.814Z,4.60
2018-12-11T01:25:12.352Z,4.60
2018-12-11T01:27:41.472Z,4.70
2018-12-11T01:30:11.495Z,4.70
2018-12-11T01:32:40.832Z,4.70
2018-12-11T01:35:16.028Z,4.70
2018-12-11T01:37:46.417Z,4.70
2018-12-11T01:40:16.312Z,4.60
2018-12-11T01:42:46.318Z,4.50
2018-12-11T01:45:15.841Z,4.50
2018-12-11T01:47:44.858Z,4.50
2018-12-11T01:50:18.046Z,4.50
2018-12-11T01:52:49.760Z,4.50
2018-12-11T01:55:19.723Z,4.40
2018-12-11T01:57:50.311Z,4.40
2018-12-11T02:00:22.399Z,4.40
2018-12-11T02:02:53.209Z,4.40
2018-12-11T02:05:22.089Z,4.40
2018-12-11T02:07:52.405Z,4.40
2018-12-11T02:10:24.409Z,4.50
2018-12-11T02:12:55.031Z,4.50
2018-12-11T02:15:24.767Z,4.50
2018-12-11T02:17:53.165Z,4.50
2018-12-11T02:20:21.559Z,4.60
2018-12-11T02:22:49.919Z,4.60
2018-12-11T02:25:18.267Z,4.60
2018-12-11T02:27:46.635Z,4.60
2018-12-11T02:30:15.059Z,4.60
2018-12-11T02:32:43.528Z,4.50
2018-12-11T02:35:12.583Z,4.50
2018-12-11T02:37:41.938Z,4.50
2018-12-11T02:40:12.846Z,4.50
2018-12-11T02:42:42.969Z,4.50
2018-12-11T02:45:13.380Z,4.60
2018-12-11T02:47:42.172Z,4.70
2018-12-11T02:50:11.495Z,4.80
2018-12-11T02:52:40.957Z,5.30
2018-12-11T02:55:11.039Z,5.40
2018-12-11T02:57:41.209Z,5.40
2018-12-11T03:00:11.137Z,5.40
2018-12-11T03:02:40.601Z,5.40
2018-12-11T03:05:10.488Z,5.50
2018-12-11T03:07:42.183Z,5.40
2018-12-11T03:10:14.728Z,5.40
2018-12-11T03:12:45.356Z,5.30
2018-12-11T03:15:16.331Z,5.20
2018-12-11T03:17:47.717Z,5.10
2018-12-11T03:20:18.286Z,5.00
2018-12-11T03:22:50.506Z,5.00
2018-12-11T03:25:22.183Z,5.00
2018-12-11T03:27:53.761Z,5.00
2018-12-11T03:30:23.926Z,5.10
2018-12-11T03:32:58.319Z,4.90
2018-12-11T03:35:28.623Z,4.90
2018-12-11T03:38:00.944Z,4.90
2018-12-11T03:40:32.465Z,4.90
2018-12-11T03:43:01.800Z,4.90
2018-12-11T03:45:34.687Z,4.90
2018-12-11T03:48:03.830Z,4.80
2018-12-11T03:50:32.365Z,5.10
2018-12-11T03:53:01.504Z,5.30
2018-12-11T03:55:35.250Z,5.20
2018-12-11T03:58:05.297Z,5.10
2018-12-11T04:00:35.409Z,5.10
2018-12-11T04:03:04.636Z,5.10
2018-12-11T04:05:34.813Z,5.10
2018-12-11T04:08:04.518Z,5.10
2018-12-11T04:10:33.578Z,5.10
2018-12-11T04:13:02.484Z,5.20
2018-12-11T04:15:31.343Z,5.20
2018-12-11T04:17:59.795Z,5.30
2018-12-11T04:20:36.503Z,5.20
2018-12-11T04:23:05.744Z,5.00
2018-12-11T04:25:34.135Z,4.80
2018-12-11T04:28:03.893Z,4.80
2018-12-11T04:30:34.711Z,4.70
2018-12-11T04:33:04.917Z,4.60
2018-12-11T04:35:38.415Z,4.60
2018-12-11T04:38:08.621Z,4.60
2018-12-11T04:40:42.770Z,4.60
2018-12-11T04:43:11.595Z,4.60
2018-12-11T04:45:42.459Z,4.60
2018-12-11T04:48:12.477Z,4.50
2018-12-11T04:50:45.591Z,4.50
2018-12-11T04:53:16.983Z,4.50
2018-12-11T04:55:47.481Z,4.50
2018-12-11T04:58:25.229Z,4.50
2018-12-11T05:00:56.660Z,4.60
2018-12-11T05:03:25.738Z,4.60
2018-12-11T05:05:56.812Z,4.60
2018-12-11T05:08:29.872Z,4.60
2018-12-11T05:11:00.480Z,4.70
2018-12-11T05:13:30.984Z,4.70
2018-12-11T05:16:01.366Z,4.70
2018-12-11T05:18:33.224Z,4.60
2018-12-11T05:21:06.062Z,4.60
2018-12-11T05:23:36.359Z,4.60
2018-12-11T05:26:07.908Z,4.70
2018-12-11T05:31:14.384Z,4.90
2018-12-11T05:33:43.631Z,4.90
2018-12-11T05:36:17.561Z,5.00
2018-12-11T05:38:46.968Z,5.00
2018-12-11T05:41:17.050Z,5.10
2018-12-11T05:43:50.427Z,5.10
2018-12-11T05:46:27.625Z,5.10
2018-12-11T05:49:05.483Z,5.10
2018-12-11T05:51:35.111Z,5.10
2018-12-11T05:54:06.063Z,5.00
2018-12-11T05:56:47.053Z,5.00
2018-12-11T05:59:20.047Z,5.00
2018-12-11T06:01:52.529Z,4.90
2018-12-11T06:04:23.462Z,4.90
2018-12-11T06:06:56.943Z,4.90
2018-12-11T06:09:32.171Z,5.00
2018-12-11T06:12:07.916Z,5.10
2018-12-11T06:14:36.697Z,5.10
2018-12-11T06:17:06.819Z,5.20
2018-12-11T06:19:38.974Z,5.30
2018-12-11T06:22:09.588Z,5.80
2018-12-11T06:24:39.818Z,5.80
2018-12-11T06:27:10.983Z,5.70
2018-12-11T06:29:41.074Z,5.80
2018-12-11T06:32:14.939Z,5.80
2018-12-11T06:34:43.683Z,5.70
2018-12-11T06:37:22.011Z,5.60
2018-12-11T06:39:57.094Z,5.40
2018-12-11T06:42:27.277Z,5.30
2018-12-11T06:45:00.049Z,5.10
2018-12-11T06:47:31.912Z,5.00
2018-12-11T06:50:01.440Z,4.90
2018-12-11T06:52:31.155Z,4.80
2018-12-11T06:55:06.853Z,4.70
2018-12-11T06:57:38.431Z,4.60
2018-12-11T07:00:08.635Z,4.50
2018-12-11T07:02:39.728Z,4.30
2018-12-11T07:05:11.354Z,4.30
2018-12-11T07:07:42.662Z,4.30
2018-12-11T07:10:12.050Z,4.20
2018-12-11T07:12:42.056Z,4.20
2018-12-11T07:15:12.125Z,4.10
2018-12-11T07:17:40.873Z,4.10
2018-12-11T07:20:10.234Z,3.90
2018-12-11T07:22:39.604Z,3.80
2018-12-11T07:25:11.538Z,3.70
2018-12-11T07:27:41.407Z,3.60
2018-12-11T07:30:10.268Z,3.60
2018-12-11T07:32:40.770Z,3.40
2018-12-11T07:35:11.434Z,3.30
2018-12-11T07:37:43.584Z,3.20
2018-12-11T07:40:21.510Z,3.10
2018-12-11T07:42:54.240Z,3.10
2018-12-11T07:46:34.073Z,3.10
2018-12-11T07:49:03.922Z,3.10
2018-12-11T07:51:34.145Z,3.30
2018-12-11T07:54:04.557Z,3.40
2018-12-11T07:56:37.007Z,3.40
2018-12-11T07:59:06.151Z,3.60
2018-12-11T08:01:35.215Z,3.80
2018-12-11T08:04:08.869Z,3.80
2018-12-11T08:06:47.521Z,4.00
2018-12-11T08:09:21.627Z,4.20
2018-12-11T08:11:55.925Z,4.30
2018-12-11T08:14:25.486Z,4.30
2018-12-11T08:16:57.793Z,4.30
2018-12-11T08:19:30.482Z,4.30
2018-12-11T08:22:02.434Z,4.20
2018-12-11T08:24:36.465Z,3.80
2018-12-11T08:29:51.121Z,3.40
2018-12-11T08:32:22.274Z,3.40
2018-12-11T08:34:51.020Z,3.10
2018-12-11T08:37:20.467Z,3.10
2018-12-11T08:39:49.927Z,3.10
2018-12-11T08:42:20.230Z,3.10
2018-12-11T08:46:18.282Z,3.10
2018-12-11T08:48:47.218Z,3.10
2018-12-11T08:51:19.066Z,3.20
2018-12-11T08:53:52.585Z,3.30
2018-12-11T08:56:23.004Z,3.50
2018-12-11T08:58:56.824Z,3.80
2018-12-11T09:01:26.076Z,4.00
2018-12-11T09:03:56.644Z,4.20
2018-12-11T09:06:25.832Z,4.50
2018-12-11T09:08:58.084Z,4.60
2018-12-11T09:11:27.838Z,4.80
2018-12-11T09:13:58.234Z,4.90
2018-12-11T09:16:27.318Z,5.10
2018-12-11T09:18:57.912Z,5.30
2018-12-11T09:21:26.397Z,5.50
2018-12-11T09:23:55.790Z,5.50
2018-12-11T09:26:24.744Z,5.60
2018-12-11T09:28:55.581Z,5.70
2018-12-11T09:31:23.975Z,5.80
2018-12-11T09:33:52.756Z,5.90
2018-12-11T09:36:21.353Z,6.00
2018-12-11T09:38:49.767Z,6.10
2018-12-11T09:41:18.589Z,6.20
2018-12-11T09:43:46.957Z,6.30
2018-12-11T09:46:16.055Z,6.30
2018-12-11T09:48:45.535Z,6.40
2018-12-11T09:51:17.805Z,6.50
2018-12-11T09:53:46.111Z,6.60
2018-12-11T09:56:14.481Z,6.80
2018-12-11T09:58:42.845Z,6.90
2018-12-11T10:01:14.978Z,7.00
2018-12-11T10:03:44.796Z,7.00
2018-12-11T10:06:14.964Z,7.10
2018-12-11T10:08:44.554Z,7.10
2018-12-11T10:11:15.982Z,7.10
2018-12-11T10:13:47.030Z,7.00
2018-12-11T10:16:16.386Z,7.00
2018-12-11T10:18:45.840Z,7.00
2018-12-11T10:21:19.502Z,6.90
2018-12-11T10:23:49.504Z,7.00
2018-12-11T10:26:19.672Z,7.00
2018-12-11T10:28:49.548Z,7.20
2018-12-11T10:31:19.044Z,7.30
2018-12-11T10:33:49.448Z,7.20
2018-12-11T10:36:21.538Z,7.20
2018-12-11T10:38:50.561Z,7.20
2018-12-11T10:41:19.643Z,7.10
2018-12-11T10:43:49.299Z,7.00
2018-12-11T10:46:18.932Z,6.90
2018-12-11T10:48:48.645Z,6.80
2018-12-11T10:51:18.162Z,6.70
2018-12-11T10:53:47.815Z,6.70
2018-12-11T10:56:19.700Z,6.60
2018-12-11T10:58:51.604Z,6.60
2018-12-11T11:01:26.093Z,6.60
2018-12-11T11:03:56.067Z,6.70
2018-12-11T11:06:28.191Z,6.70
2018-12-11T11:09:02.047Z,6.80
2018-12-11T11:11:39.416Z,6.80
2018-12-11T11:14:08.559Z,6.80
2018-12-11T11:16:40.353Z,6.80
2018-12-11T11:19:09.919Z,6.80
2018-12-11T11:21:39.302Z,6.80
2018-12-11T11:24:08.588Z,6.80
2018-12-11T11:26:43.243Z,6.80
2018-12-11T11:29:16.867Z,6.80
2018-12-11T11:31:50.507Z,6.80
2018-12-11T11:34:21.653Z,6.80
2018-12-11T11:36:54.500Z,6.90
2018-12-11T11:39:24.995Z,6.90
2018-12-11T11:41:56.229Z,7.00
2018-12-11T11:44:26.300Z,7.10
2018-12-11T11:46:59.727Z,7.10
2018-12-11T11:49:30.140Z,7.10
2018-12-11T11:52:04.884Z,7.10
2018-12-11T11:54:35.346Z,7.10
2018-12-11T11:57:06.476Z,7.00
2018-12-11T11:59:39.017Z,7.00
2018-12-11T12:02:09.298Z,7.00
2018-12-11T12:04:47.932Z,7.00
2018-12-11T12:07:18.370Z,7.00
2018-12-11T12:09:52.826Z,7.00
2018-12-11T12:12:23.548Z,6.90
2018-12-11T12:14:58.424Z,6.90
2018-12-11T12:17:33.140Z,7.00
2018-12-11T12:20:04.927Z,7.00
2018-12-11T12:22:44.424Z,7.10
2018-12-11T12:25:15.861Z,7.30
2018-12-11T12:27:47.719Z,7.30
2018-12-11T12:30:18.328Z,7.40
2018-12-11T12:32:54.152Z,7.40
2018-12-11T12:35:27.816Z,7.50
2018-12-11T12:37:57.230Z,7.50
2018-12-11T12:40:27.899Z,7.50
2018-12-11T12:42:59.594Z,7.60
2018-12-11T12:45:34.731Z,7.50
2018-12-11T12:48:05.419Z,7.50
2018-12-11T12:50:34.950Z,7.50
2018-12-11T12:53:09.392Z,7.60
2018-12-11T12:55:39.798Z,7.60
2018-12-11T12:58:09.599Z,7.60
2018-12-11T13:00:43.920Z,7.50
2018-12-11T13:03:13.159Z,7.50
2018-12-11T13:05:42.499Z,7.40
2018-12-11T13:08:15.902Z,7.30
2018-12-11T13:10:47.745Z,7.20
2018-12-11T13:13:18.215Z,7.10
2018-12-11T13:15:49.002Z,7.10
2018-12-11T13:18:19.159Z,7.10
2018-12-11T13:20:50.636Z,7.10
2018-12-11T13:23:21.540Z,7.00
2018-12-11T13:25:54.810Z,7.00
2018-12-11T13:28:29.994Z,7.00
2018-12-11T13:31:02.192Z,7.00
2018-12-11T13:33:33.191Z,7.00
2018-12-11T13:38:40.602Z,6.90
2018-12-11T13:41:10.556Z,6.90
2018-12-11T13:43:40.433Z,6.90
2018-12-11T13:46:10.639Z,7.00
2018-12-11T13:48:42.811Z,7.00
2018-12-11T13:51:17.512Z,6.90
2018-12-11T13:53:54.764Z,6.90
2018-12-11T13:56:24.200Z,6.90
2018-12-11T13:59:02.052Z,6.90
2018-12-11T14:01:30.939Z,6.90
2018-12-11T14:04:02.439Z,6.90
2018-12-11T14:06:30.851Z,6.90
2018-12-11T14:09:04.389Z,6.90
2018-12-11T14:11:32.786Z,6.80
2018-12-11T14:14:02.562Z,6.80
2018-12-11T14:16:32.335Z,6.80
2018-12-11T14:19:02.814Z,6.80
2018-12-11T14:21:34.242Z,6.90
2018-12-11T14:24:05.818Z,6.80
2018-12-11T14:26:40.878Z,6.80
2018-12-11T14:29:09.940Z,6.80
2018-12-11T14:31:40.995Z,6.80
2018-12-11T14:34:09.690Z,6.80
2018-12-11T14:36:39.310Z,6.80
2018-12-11T14:39:17.862Z,6.80
2018-12-11T14:41:47.750Z,6.80
2018-12-11T14:44:20.182Z,6.80
2018-12-11T14:49:37.080Z,6.80
2018-12-11T14:52:10.239Z,6.80
2018-12-11T14:54:42.125Z,6.70
2018-12-11T14:57:33.895Z,6.70
2018-12-11T15:00:04.744Z,6.70
2018-12-11T15:02:34.450Z,6.70
2018-12-11T15:05:05.363Z,6.60
2018-12-11T15:07:37.334Z,6.60
2018-12-11T15:10:14.183Z,6.50
2018-12-11T15:19:34.707Z,6.40
2018-12-11T15:22:04.979Z,6.20
2018-12-11T15:24:33.956Z,6.10
2018-12-11T15:27:03.590Z,6.00
2018-12-11T15:29:34.914Z,6.00
2018-12-11T15:32:04.881Z,5.90
2018-12-11T15:34:34.642Z,5.80
2018-12-11T15:37:03.675Z,5.70
2018-12-11T15:39:35.956Z,5.60
2018-12-11T15:42:10.816Z,5.50
2018-12-11T15:44:44.328Z,5.50
2018-12-11T15:47:18.159Z,5.30
2018-12-11T15:49:50.890Z,5.30
2018-12-11T15:52:21.932Z,5.30
2018-12-11T15:54:52.140Z,5.20
2018-12-11T15:57:22.603Z,5.20
2018-12-11T15:59:54.079Z,5.10
2018-12-11T16:02:26.653Z,5.10
2018-12-11T16:04:59.506Z,5.00
2018-12-11T16:07:35.171Z,5.00
2018-12-11T16:10:13.223Z,5.20
2018-12-11T16:12:46.885Z,5.30
2018-12-11T16:15:18.927Z,5.30
2018-12-11T16:17:48.267Z,5.20
2018-12-11T16:20:22.020Z,5.30
2018-12-11T16:23:00.281Z,5.30
2018-12-11T16:25:31.623Z,5.30
2018-12-11T16:28:02.850Z,5.20
2018-12-11T16:30:33.025Z,5.20
2018-12-11T16:33:09.933Z,5.10
2018-12-11T16:35:39.387Z,5.10
2018-12-11T16:38:08.859Z,5.00
2018-12-11T16:40:40.913Z,5.00
2018-12-11T16:43:10.023Z,4.90
2018-12-11T16:45:41.397Z,4.90
2018-12-11T16:48:11.785Z,4.80
2018-12-11T16:50:42.721Z,4.80
2018-12-11T16:53:13.181Z,4.80
2018-12-11T16:55:49.845Z,4.90
2018-12-11T16:58:19.407Z,5.00
2018-12-11T17:00:48.639Z,5.10
2018-12-11T17:03:21.841Z,5.30
2018-12-11T17:05:50.821Z,5.30
2018-12-11T17:08:22.139Z,5.50
2018-12-11T17:10:52.083Z,5.70
2018-12-11T17:13:23.227Z,5.80
2018-12-11T17:15:54.191Z,5.90
2018-12-11T17:18:25.817Z,5.90
2018-12-11T17:22:23.801Z,5.90
2018-12-11T17:24:57.512Z,5.80
2018-12-11T17:27:29.713Z,5.80
2018-12-11T17:29:59.895Z,5.70
2018-12-11T17:32:28.311Z,5.60
2018-12-11T17:34:57.320Z,5.40
2018-12-11T17:37:27.057Z,5.20
2018-12-11T17:39:55.505Z,5.10
2018-12-11T17:42:25.591Z,4.90
2018-12-11T17:44:56.155Z,4.80
2018-12-11T17:47:24.995Z,4.70
2018-12-11T17:49:56.957Z,4.60
2018-12-11T17:52:25.327Z,4.60
2018-12-11T17:54:54.761Z,4.70
2018-12-11T17:57:23.782Z,4.60
2018-12-11T17:59:53.302Z,4.60
2018-12-11T18:02:29.786Z,4.70
2018-12-11T18:04:59.102Z,4.80
2018-12-11T18:07:27.870Z,4.80
2018-12-11T18:09:56.618Z,5.00
2018-12-11T18:12:24.962Z,4.90
2018-12-11T18:14:54.106Z,4.90
2018-12-11T18:17:23.074Z,5.00
2018-12-11T18:19:52.425Z,5.00
2018-12-11T18:22:20.826Z,4.80
2018-12-11T18:24:50.527Z,4.80
2018-12-11T18:27:22.124Z,4.80
2018-12-11T18:29:51.532Z,4.80
2018-12-11T18:32:25.019Z,4.80
2018-12-11T18:34:51.868Z,4.80
2018-12-11T18:37:20.654Z,4.90
2018-12-11T18:39:49.971Z,5.00
2018-12-11T18:42:18.362Z,4.90
2018-12-11T18:44:46.710Z,4.80
2018-12-11T18:47:15.070Z,4.60
2018-12-11T18:49:43.589Z,4.50
2018-12-11T18:52:12.445Z,4.50
2018-12-11T18:54:41.913Z,4.70
2018-12-11T18:57:10.661Z,4.80
2018-12-11T18:59:39.052Z,4.80
2018-12-11T19:02:08.214Z,4.60
2018-12-11T19:04:37.111Z,4.60
2018-12-11T19:07:05.948Z,4.50
2018-12-11T19:09:34.457Z,4.50
2018-12-11T19:12:03.524Z,4.50
2018-12-11T19:14:32.243Z,4.50
2018-12-11T19:17:00.650Z,4.50
2018-12-11T19:19:29.013Z,4.50
2018-12-11T19:21:57.375Z,4.50
2018-12-11T19:24:30.741Z,4.70
2018-12-11T19:26:59.117Z,4.80
2018-12-11T19:29:27.900Z,4.70
2018-12-11T19:31:56.322Z,4.70
2018-12-11T19:34:24.734Z,4.70
2018-12-11T19:36:53.140Z,4.70
2018-12-11T19:39:22.789Z,4.80
2018-12-11T19:41:51.394Z,4.90
2018-12-11T19:44:19.821Z,4.90
2018-12-11T19:46:49.222Z,4.80
2018-12-11T19:49:18.234Z,4.80
2018-12-11T19:51:47.392Z,4.70
2018-12-11T19:54:15.816Z,4.70
2018-12-11T19:56:45.205Z,4.70
2018-12-11T19:59:17.501Z,4.70
2018-12-11T20:01:47.160Z,4.70
2018-12-11T20:04:24.561Z,4.70
2018-12-11T20:06:53.936Z,4.70
2018-12-11T20:09:23.744Z,4.60
2018-12-11T20:11:53.469Z,4.60
2018-12-11T20:14:22.375Z,4.60
2018-12-11T20:16:50.886Z,4.70
2018-12-11T20:19:19.508Z,4.70
2018-12-11T20:21:48.726Z,4.70
2018-12-11T20:24:18.442Z,4.70
2018-12-11T20:26:49.719Z,4.70
2018-12-11T20:29:18.159Z,4.70
2018-12-11T20:31:50.271Z,4.60
2018-12-11T20:34:19.267Z,4.60
2018-12-11T20:36:49.063Z,4.60
2018-12-11T20:39:17.893Z,4.60
2018-12-11T20:41:46.515Z,4.60
2018-12-11T20:44:14.895Z,4.50
2018-12-11T20:46:43.279Z,4.50
2018-12-11T20:50:42.251Z,4.50
2018-12-11T20:55:46.195Z,4.60
2018-12-11T20:58:14.670Z,4.70
2018-12-11T21:00:43.075Z,4.70
2018-12-11T21:03:17.442Z,4.70
2018-12-11T21:05:46.326Z,4.70
2018-12-11T21:08:15.523Z,4.60
2018-12-11T21:10:44.555Z,4.50
2018-12-11T21:13:13.928Z,4.40
2018-12-11T21:15:42.288Z,4.40
2018-12-11T21:18:10.685Z,4.40
2018-12-11T21:20:39.929Z,4.40
2018-12-11T21:23:10.363Z,4.40
2018-12-11T21:25:39.119Z,4.50
2018-12-11T21:28:08.711Z,4.50
2018-12-11T21:30:37.770Z,4.40
2018-12-11T21:33:09.256Z,4.40
2018-12-11T21:35:38.483Z,4.40
2018-12-11T21:38:07.772Z,4.40
2018-12-11T21:40:36.663Z,4.30
2018-12-11T21:43:05.797Z,4.30
2018-12-11T21:45:35.362Z,4.20
2018-12-11T21:48:07.291Z,4.20
2018-12-11T21:50:40.325Z,4.20
2018-12-11T21:53:09.149Z,4.20
2018-12-11T21:55:38.101Z,4.20
2018-12-11T21:58:06.981Z,4.20
2018-12-11T22:00:35.365Z,4.20
2018-12-11T22:03:03.750Z,4.20
2018-12-11T22:05:32.611Z,4.30
2018-12-11T22:08:01.391Z,4.30
2018-12-11T22:10:29.737Z,4.30
2018-12-11T22:12:58.831Z,4.30
2018-12-11T22:15:27.197Z,4.30
2018-12-11T22:17:55.851Z,4.20
2018-12-11T22:20:24.259Z,4.20
2018-12-11T22:22:52.719Z,4.20
2018-12-11T22:25:21.851Z,4.20
2018-12-11T22:27:51.577Z,4.20
2018-12-11T22:30:20.243Z,4.10
2018-12-11T22:32:48.592Z,4.10
2018-12-11T22:35:17.195Z,4.00
2018-12-11T22:37:46.548Z,3.90
2018-12-11T22:40:15.000Z,3.80
2018-12-11T22:42:44.379Z,3.70
2018-12-11T22:45:13.217Z,3.70
2018-12-11T22:47:41.659Z,3.70
2018-12-11T22:50:11.021Z,3.60
2018-12-11T22:52:40.160Z,3.60
2018-12-11T22:55:11.068Z,3.60
2018-12-11T22:57:41.850Z,3.60
2018-12-11T23:00:14.365Z,3.50
2018-12-11T23:02:43.488Z,3.40
2018-12-11T23:05:13.407Z,3.30
2018-12-11T23:07:43.024Z,3.30
2018-12-11T23:10:12.117Z,3.20
2018-12-11T23:12:41.075Z,2.80
2018-12-11T23:15:10.555Z,2.60
2018-12-11T23:17:38.907Z,2.70
2018-12-11T23:20:08.394Z,2.60
2018-12-11T23:22:36.782Z,2.80
2018-12-11T23:25:07.574Z,2.70
2018-12-11T23:27:36.852Z,2.90
2018-12-11T23:30:08.779Z,2.70
2018-12-11T23:32:38.050Z,2.50
2018-12-11T23:35:06.880Z,2.50
2018-12-11T23:37:36.283Z,2.50
2018-12-11T23:40:06.776Z,2.40
2018-12-11T23:42:36.078Z,2.40
2018-12-11T23:45:05.902Z,2.30
2018-12-11T23:47:34.738Z,2.30
2018-12-11T23:50:03.790Z,2.20
2018-12-11T23:52:32.980Z,2.20
2018-12-11T23:55:08.591Z,1.90
2018-12-11T23:57:39.490Z,2.00
